Time;durP1;ratioP1;P1;durP2;ratioP2;P2;SDS_P1;SDS_P2;PMS_P1;PMS_P2;Temp;Humidity;BMP_temperature;BMP_pressure;BME280_temperature;BME280_humidity;BME280_pressure;Samples;Min_cycle;Max_cycle;Signal;HPM_P1;HPM_P2
2021/04/25 00:01:33;;;;;;;12.83;10.13;;;;;;;9.61;100.00;101953.56;4940406;29;20712;-77
2021/04/25 00:03:58;;;;;;;17.50;10.90;;;;;;;9.54;100.00;101945.13;4939846;29;20275;-76
2021/04/25 00:06:24;;;;;;;15.77;10.30;;;;;;;9.52;100.00;101941.72;4940496;29;20401;-74
2021/04/25 00:08:49;;;;;;;18.03;11.30;;;;;;;9.52;100.00;101939.09;4939225;29;20184;-75
2021/04/25 00:11:15;;;;;;;16.70;10.73;;;;;;;9.48;100.00;101945.38;4940372;29;20188;-79
2021/04/25 00:13:43;;;;;;;16.43;11.63;;;;;;;9.49;100.00;101938.34;4940368;29;20179;-79
2021/04/25 00:16:09;;;;;;;15.37;10.67;;;;;;;9.50;100.00;101946.16;4940253;29;20393;-74
2021/04/25 00:18:35;;;;;;;15.10;12.13;;;;;;;9.47;100.00;101948.06;4939648;29;20413;-74
2021/04/25 00:21:01;;;;;;;22.13;11.47;;;;;;;9.42;100.00;101938.59;4940230;29;20401;-76
2021/04/25 00:23:26;;;;;;;19.20;11.67;;;;;;;9.41;100.00;101943.94;4940236;29;20681;-75
2021/04/25 00:25:52;;;;;;;17.73;11.60;;;;;;;9.40;100.00;101939.59;4940035;29;20399;-74
2021/04/25 00:28:18;;;;;;;17.57;11.73;;;;;;;9.36;100.00;101938.88;4939851;29;20173;-75
2021/04/25 00:30:43;;;;;;;14.37;9.60;;;;;;;9.39;100.00;101935.28;4940464;29;20625;-75
2021/04/25 00:33:09;;;;;;;15.57;9.73;;;;;;;9.39;100.00;101948.41;4939945;29;20416;-75
2021/04/25 00:35:35;;;;;;;9.63;7.87;;;;;;;9.38;100.00;101946.69;4939833;29;20204;-77
2021/04/25 00:38:01;;;;;;;13.97;8.60;;;;;;;9.37;100.00;101944.97;4939572;29;20558;-77
2021/04/25 00:40:27;;;;;;;15.73;7.57;;;;;;;9.31;100.00;101935.59;4938848;29;20953;-78
2021/04/25 00:42:52;;;;;;;12.70;7.63;;;;;;;9.29;100.00;101934.78;4939844;29;20503;-76
2021/04/25 00:45:18;;;;;;;11.83;7.97;;;;;;;9.32;100.00;101933.84;4921224;29;20225;-78
2021/04/25 00:47:45;;;;;;;10.60;7.40;;;;;;;9.27;100.00;101936.63;4921253;29;20161;-78
2021/04/25 00:50:13;;;;;;;13.33;7.47;;;;;;;9.21;100.00;101939.50;4927385;29;20492;-78
2021/04/25 00:52:43;;;;;;;13.30;7.67;;;;;;;9.21;100.00;101938.66;4939939;29;21205;-79
2021/04/25 00:55:12;;;;;;;12.80;6.23;;;;;;;9.17;100.00;101937.94;4939644;29;20413;-79
2021/04/25 00:57:38;;;;;;;11.77;7.10;;;;;;;9.13;100.00;101941.59;4938777;29;20472;-73
2021/04/25 01:00:05;;;;;;;8.97;5.90;;;;;;;9.22;100.00;101938.63;4939618;29;20511;-74
2021/04/25 01:02:31;;;;;;;10.27;6.13;;;;;;;9.15;100.00;101931.91;4940171;29;20444;-75
2021/04/25 01:04:57;;;;;;;11.63;6.43;;;;;;;9.14;100.00;101930.19;4939496;29;20413;-77
2021/04/25 01:07:22;;;;;;;11.73;6.63;;;;;;;9.08;100.00;101919.97;4939732;29;20421;-79
2021/04/25 01:09:48;;;;;;;13.50;5.73;;;;;;;9.06;100.00;101925.25;4936408;29;20729;-75
2021/04/25 01:12:13;;;;;;;9.43;6.77;;;;;;;9.07;100.00;101916.50;4935573;29;20595;-77
2021/04/25 01:14:39;;;;;;;9.00;5.97;;;;;;;9.12;100.00;101914.53;4941530;29;20173;-79
2021/04/25 01:17:05;;;;;;;9.30;5.90;;;;;;;9.11;100.00;101923.31;4936572;29;20252;-76
2021/04/25 01:19:30;;;;;;;23.10;6.27;;;;;;;9.06;100.00;101920.03;4937002;29;20592;-76
2021/04/25 01:21:56;;;;;;;13.03;5.70;;;;;;;9.07;100.00;101910.41;4935902;29;20421;-79
2021/04/25 01:24:22;;;;;;;10.17;5.93;;;;;;;9.13;100.00;101910.13;4936139;29;20197;-78
2021/04/25 01:26:47;;;;;;;10.30;5.37;;;;;;;9.13;100.00;101905.75;4935930;29;20305;-76
2021/04/25 01:29:13;;;;;;;7.13;4.70;;;;;;;9.11;100.00;101902.34;4936477;29;20622;-79
2021/04/25 01:31:38;;;;;;;8.70;5.60;;;;;;;9.18;100.00;101905.56;4936752;29;20165;-77
2021/04/25 01:34:04;;;;;;;9.50;5.50;;;;;;;9.21;100.00;101907.19;4936621;29;20709;-76
2021/04/25 01:36:30;;;;;;;13.40;5.77;;;;;;;9.16;100.00;101917.88;4936049;29;20247;-76
2021/04/25 01:38:55;;;;;;;8.37;4.87;;;;;;;9.21;100.00;101918.53;4935245;29;20646;-79
2021/04/25 01:41:21;;;;;;;8.63;5.57;;;;;;;9.22;100.00;101924.63;4936089;29;20428;-74
2021/04/25 01:43:47;;;;;;;11.77;7.57;;;;;;;9.23;100.00;101923.75;4936528;29;20197;-74
2021/04/25 01:46:16;;;;;;;11.13;6.90;;;;;;;9.24;100.00;101917.56;4935958;29;20256;-73
2021/04/25 01:48:42;;;;;;;10.87;6.23;;;;;;;9.19;100.00;101909.88;4939035;29;20405;-77
2021/04/25 01:51:08;;;;;;;9.80;6.53;;;;;;;9.14;100.00;101906.59;4942556;29;20440;-75
2021/04/25 01:53:34;;;;;;;14.17;7.97;;;;;;;9.12;100.00;101916.31;4937216;29;20525;-75
2021/04/25 01:56:00;;;;;;;16.83;8.17;;;;;;;8.99;100.00;101910.69;4935359;29;20689;-74
2021/04/25 01:58:25;;;;;;;11.13;7.43;;;;;;;8.94;100.00;101914.44;4936143;29;20540;-78
2021/04/25 02:00:52;;;;;;;14.60;6.80;;;;;;;8.96;100.00;101907.38;4935758;29;20418;-78
2021/04/25 02:03:18;;;;;;;12.57;7.60;;;;;;;8.94;100.00;101899.56;4935609;29;20225;-78
2021/04/25 02:05:43;;;;;;;13.50;7.40;;;;;;;8.95;100.00;101903.91;4935024;29;20843;-76
2021/04/25 02:08:11;;;;;;;11.37;7.20;;;;;;;8.92;100.00;101900.53;4935909;29;20409;-78
2021/04/25 02:10:39;;;;;;;8.87;6.20;;;;;;;8.97;100.00;101899.44;4935857;29;20256;-78
2021/04/25 02:13:05;;;;;;;11.13;6.23;;;;;;;9.00;100.00;101893.25;4935891;29;20795;-79
2021/04/25 02:15:31;;;;;;;14.00;7.07;;;;;;;9.07;100.00;101889.44;4935745;29;20413;-79
2021/04/25 02:17:56;;;;;;;8.40;7.07;;;;;;;9.07;100.00;101892.91;4936029;29;20401;-79
2021/04/25 02:20:23;;;;;;;14.67;9.20;;;;;;;9.12;100.00;101896.19;4935157;29;20180;-80
2021/04/25 02:22:51;;;;;;;13.87;8.30;;;;;;;8.98;100.00;101895.91;4935538;29;20185;-79
2021/04/25 02:25:18;;;;;;;16.57;11.03;;;;;;;8.94;100.00;101893.47;4935724;29;20397;-76
2021/04/25 02:27:44;;;;;;;13.80;9.00;;;;;;;8.86;100.00;101894.66;4935071;29;20467;-77
2021/04/25 02:30:13;;;;;;;13.13;9.90;;;;;;;8.81;100.00;101890.50;4935444;29;20794;-79
2021/04/25 02:32:39;;;;;;;12.60;10.17;;;;;;;8.71;100.00;101899.66;4935409;29;20425;-78
2021/04/25 02:35:06;;;;;;;15.43;11.10;;;;;;;8.67;100.00;101901.53;4934461;29;21019;-69
2021/04/25 02:37:32;;;;;;;15.90;11.17;;;;;;;8.65;100.00;101887.66;4935102;29;20162;-75
2021/04/25 02:39:58;;;;;;;15.90;11.10;;;;;;;8.60;100.00;101893.06;4934772;29;20481;-73
2021/04/25 02:42:23;;;;;;;18.83;10.70;;;;;;;8.55;100.00;101886.31;4935956;29;20204;-78
2021/04/25 02:44:49;;;;;;;14.50;10.83;;;;;;;8.62;100.00;101893.03;4936449;29;20540;-78
2021/04/25 02:47:14;;;;;;;15.30;11.00;;;;;;;8.53;100.00;101888.97;4935307;29;20157;-77
2021/04/25 02:49:40;;;;;;;19.30;11.27;;;;;;;8.56;100.00;101882.78;4934857;29;20259;-79
2021/04/25 02:52:06;;;;;;;19.93;10.90;;;;;;;8.54;100.00;101889.88;4935103;29;20181;-79
2021/04/25 02:54:33;;;;;;;16.00;10.37;;;;;;;8.57;100.00;101892.34;4935511;29;20193;-77
2021/04/25 02:56:58;;;;;;;11.57;8.77;;;;;;;8.64;100.00;101890.34;4934921;29;20881;-78
2021/04/25 02:59:24;;;;;;;12.80;8.10;;;;;;;8.68;100.00;101884.03;4934886;29;20431;-79
2021/04/25 03:01:49;;;;;;;13.40;7.53;;;;;;;8.75;100.00;101878.50;4935548;29;20169;-77
2021/04/25 03:04:15;;;;;;;14.97;10.50;;;;;;;8.85;100.00;101874.59;4934773;29;20288;-76
2021/04/25 03:06:40;;;;;;;16.77;11.23;;;;;;;8.88;100.00;101871.84;4934763;29;20524;-75
2021/04/25 03:09:06;;;;;;;20.60;14.40;;;;;;;8.85;100.00;101877.22;4934690;29;20169;-74
2021/04/25 03:11:31;;;;;;;16.07;12.43;;;;;;;8.86;100.00;101878.06;4934632;29;20257;-74
2021/04/25 03:13:57;;;;;;;17.93;11.40;;;;;;;8.74;100.00;101876.78;4933394;29;20212;-74
2021/04/25 03:16:23;;;;;;;24.30;13.07;;;;;;;8.64;100.00;101874.63;4934676;29;20157;-74
2021/04/25 03:18:48;;;;;;;19.00;11.73;;;;;;;8.64;100.00;101870.22;4934021;29;20552;-77
2021/04/25 03:21:14;;;;;;;12.97;10.53;;;;;;;8.64;100.00;101872.00;4934453;29;20206;-74
2021/04/25 03:23:39;;;;;;;16.90;11.23;;;;;;;8.65;100.00;101889.44;4934481;29;20196;-76
2021/04/25 03:26:04;;;;;;;15.97;10.40;;;;;;;8.65;100.00;101884.19;4934345;29;20229;-75
2021/04/25 03:28:30;;;;;;;26.20;12.40;;;;;;;8.63;100.00;101886.03;4934417;29;20571;-73
2021/04/25 03:30:55;;;;;;;20.73;12.10;;;;;;;8.58;100.00;101886.19;4934277;29;20161;-76
2021/04/25 03:33:22;;;;;;;13.67;10.37;;;;;;;8.71;100.00;101871.69;4933614;29;20157;-76
2021/04/25 03:35:47;;;;;;;13.37;9.70;;;;;;;8.67;100.00;101884.97;4934460;29;20705;-77
2021/04/25 03:38:13;;;;;;;13.87;9.90;;;;;;;8.71;100.00;101890.03;4933731;29;20423;-74
2021/04/25 03:40:38;;;;;;;19.63;10.60;;;;;;;8.69;100.00;101888.38;4934152;29;20168;-78
2021/04/25 03:43:04;;;;;;;17.60;11.33;;;;;;;8.82;100.00;101892.22;4934100;29;20203;-77
2021/04/25 03:45:29;;;;;;;17.67;11.43;;;;;;;8.79;100.00;101885.34;4934417;29;20196;-79
2021/04/25 03:47:55;;;;;;;13.57;9.97;;;;;;;8.85;100.00;101897.34;4934341;29;20161;-77
2021/04/25 03:50:24;;;;;;;15.10;11.40;;;;;;;8.82;100.00;101894.81;4934055;29;20213;-78
2021/04/25 03:52:49;;;;;;;16.83;11.57;;;;;;;8.76;100.00;101906.41;4933999;29;20195;-74
2021/04/25 03:55:17;;;;;;;14.10;10.63;;;;;;;8.80;100.00;101912.38;4933969;29;20476;-73
2021/04/25 03:57:43;;;;;;;17.50;10.60;;;;;;;8.82;100.00;101900.91;4933546;29;20166;-77
2021/04/25 04:00:11;;;;;;;18.77;12.20;;;;;;;8.78;100.00;101903.75;4934507;29;20809;-75
2021/04/25 04:02:37;;;;;;;18.20;11.63;;;;;;;8.82;100.00;101900.06;4933724;29;20929;-77
2021/04/25 04:05:03;;;;;;;14.77;10.17;;;;;;;8.83;100.00;101899.16;4933907;29;20949;-73
2021/04/25 04:07:29;;;;;;;17.30;9.57;;;;;;;8.81;100.00;101896.59;4934267;29;20650;-77
2021/04/25 04:09:55;;;;;;;17.17;9.43;;;;;;;8.75;100.00;101906.47;4933440;29;20479;-75
2021/04/25 04:12:20;;;;;;;13.13;9.53;;;;;;;8.79;100.00;101898.44;4933688;29;20297;-78
2021/04/25 04:14:47;;;;;;;16.23;9.90;;;;;;;8.87;100.00;101905.97;4933918;29;20165;-75
2021/04/25 04:17:12;;;;;;;13.80;8.57;;;;;;;8.83;100.00;101907.00;4933650;29;20193;-78
2021/04/25 04:19:38;;;;;;;12.53;8.83;;;;;;;8.74;100.00;101913.47;4933962;29;20491;-77
2021/04/25 04:22:03;;;;;;;12.90;9.40;;;;;;;8.66;100.00;101920.78;4933816;29;20181;-77
2021/04/25 04:24:29;;;;;;;17.17;10.00;;;;;;;8.66;100.00;101914.69;4933438;29;20193;-78
2021/04/25 04:26:54;;;;;;;18.67;11.00;;;;;;;8.75;100.00;101909.09;4934003;29;20162;-76
2021/04/25 04:29:20;;;;;;;14.80;9.47;;;;;;;8.84;100.00;101909.59;4933907;29;20157;-77
2021/04/25 04:31:45;;;;;;;15.77;9.80;;;;;;;9.05;100.00;101906.97;4933710;29;20219;-78
2021/04/25 04:34:11;;;;;;;11.10;8.43;;;;;;;9.17;100.00;101909.09;4933684;29;20169;-78
2021/04/25 04:36:36;;;;;;;16.40;10.60;;;;;;;9.10;100.00;101911.13;4933917;29;20182;-75
2021/04/25 04:39:03;;;;;;;14.40;10.20;;;;;;;9.02;100.00;101909.75;4933593;29;20176;-74
2021/04/25 04:41:28;;;;;;;12.07;9.53;;;;;;;9.05;100.00;101906.97;4932805;29;20169;-78
2021/04/25 04:43:54;;;;;;;16.30;10.37;;;;;;;9.15;100.00;101897.84;4935335;29;20472;-81
2021/04/25 04:46:20;;;;;;;17.07;10.13;;;;;;;9.20;100.00;101902.88;4935354;29;20193;-79
2021/04/25 04:48:45;;;;;;;18.57;12.60;;;;;;;9.27;100.00;101897.28;4937487;29;20153;-77
2021/04/25 04:51:11;;;;;;;16.47;12.30;;;;;;;9.19;100.00;101909.88;4935346;29;20992;-80
2021/04/25 04:53:37;;;;;;;19.83;13.23;;;;;;;9.18;100.00;101913.44;4937112;29;20164;-77
2021/04/25 04:56:03;;;;;;;18.87;13.13;;;;;;;9.29;100.00;101911.19;4937094;29;20457;-78
2021/04/25 04:58:28;;;;;;;20.00;12.50;;;;;;;9.48;100.00;101899.94;4937362;29;20165;-76
2021/04/25 05:00:54;;;;;;;20.30;14.00;;;;;;;9.53;100.00;101901.44;4936854;29;20408;-76
2021/04/25 05:03:19;;;;;;;24.30;12.80;;;;;;;9.63;100.00;101886.97;4937025;29;20279;-77
2021/04/25 05:05:45;;;;;;;17.90;12.93;;;;;;;9.68;100.00;101876.28;4935676;29;20207;-74
2021/04/25 05:08:10;;;;;;;18.43;12.73;;;;;;;9.83;100.00;101880.00;4936828;29;20158;-75
2021/04/25 05:10:36;;;;;;;16.60;12.30;;;;;;;9.92;100.00;101875.19;4936468;29;20181;-77
2021/04/25 05:13:01;;;;;;;23.27;13.07;;;;;;;10.13;100.00;101872.50;4936818;29;20244;-77
2021/04/25 05:15:27;;;;;;;16.77;12.00;;;;;;;10.33;100.00;101875.06;4936442;29;20173;-77
2021/04/25 05:17:52;;;;;;;18.53;11.37;;;;;;;10.56;100.00;101863.44;4936010;29;20177;-75
2021/04/25 05:20:18;;;;;;;17.40;12.47;;;;;;;10.65;100.00;101864.75;4936292;29;20626;-77
2021/04/25 05:22:43;;;;;;;17.13;11.17;;;;;;;10.77;100.00;101857.13;4936913;29;20193;-74
2021/04/25 05:25:09;;;;;;;16.27;10.73;;;;;;;11.07;100.00;101856.53;4936979;29;20613;-76
2021/04/25 05:27:35;;;;;;;16.73;10.30;;;;;;;11.43;100.00;101855.56;4936695;29;20168;-75
2021/04/25 05:30:01;;;;;;;16.70;9.93;;;;;;;11.75;100.00;101849.44;4936333;29;20416;-74
2021/04/25 05:32:26;;;;;;;13.10;9.13;;;;;;;11.85;100.00;101857.72;4936348;29;20165;-75
2021/04/25 05:34:52;;;;;;;17.97;10.27;;;;;;;12.00;100.00;101854.25;4936309;29;20468;-76
2021/04/25 05:37:17;;;;;;;12.80;9.80;;;;;;;12.16;100.00;101848.97;4936178;29;20211;-72
2021/04/25 05:39:43;;;;;;;13.43;8.57;;;;;;;12.34;100.00;101853.25;4936129;29;20166;-76
2021/04/25 05:42:08;;;;;;;16.80;7.87;;;;;;;12.19;100.00;101851.47;4935842;29;20185;-76
2021/04/25 05:44:34;;;;;;;9.33;7.37;;;;;;;12.56;100.00;101852.03;4935769;29;20576;-74
2021/04/25 05:46:59;;;;;;;14.37;6.93;;;;;;;12.65;100.00;101851.50;4935171;29;20236;-73
2021/04/25 05:49:25;;;;;;;10.17;6.23;;;;;;;13.00;100.00;101842.38;4936083;29;20169;-75
2021/04/25 05:51:51;;;;;;;12.83;5.53;;;;;;;13.29;100.00;101838.00;4936277;29;20197;-73
2021/04/25 05:54:16;;;;;;;8.80;4.60;;;;;;;13.42;100.00;101839.91;4935968;29;20201;-77
2021/04/25 05:56:42;;;;;;;10.60;4.30;;;;;;;13.53;100.00;101837.50;4934916;29;20635;-75
2021/04/25 05:59:07;;;;;;;4.87;3.30;;;;;;;13.48;100.00;101835.13;4933325;29;20173;-76
2021/04/25 06:01:33;;;;;;;9.20;4.07;;;;;;;13.45;100.00;101837.06;4933866;29;20177;-76
2021/04/25 06:03:58;;;;;;;9.40;3.83;;;;;;;13.44;100.00;101843.31;4933703;29;20197;-78
2021/04/25 06:06:24;;;;;;;16.13;6.50;;;;;;;13.40;100.00;101850.56;4933672;29;20172;-77
2021/04/25 06:08:50;;;;;;;5.30;3.17;;;;;;;13.36;100.00;101846.41;4933525;29;20173;-75
2021/04/25 06:11:16;;;;;;;7.03;3.80;;;;;;;13.36;100.00;101849.06;4933590;29;20409;-78
2021/04/25 06:13:41;;;;;;;8.77;3.43;;;;;;;13.43;100.00;101855.66;4934068;29;20158;-76
2021/04/25 06:16:07;;;;;;;8.10;3.40;;;;;;;13.62;100.00;101841.34;4935543;29;20252;-77
2021/04/25 06:18:32;;;;;;;8.00;4.00;;;;;;;13.61;100.00;101843.13;4918360;29;20158;-77
2021/04/25 06:20:58;;;;;;;8.97;3.67;;;;;;;13.66;100.00;101848.13;4934997;29;20169;-77
2021/04/25 06:23:23;;;;;;;5.47;3.40;;;;;;;13.59;100.00;101840.56;4935398;29;20196;-80
2021/04/25 06:25:49;;;;;;;7.83;3.20;;;;;;;13.45;100.00;101855.56;4935304;29;20165;-78
2021/04/25 06:28:15;;;;;;;10.23;3.77;;;;;;;13.61;100.00;101853.72;4935249;29;20169;-78
2021/04/25 06:30:41;;;;;;;5.70;3.37;;;;;;;13.78;100.00;101860.56;4935925;29;20165;-75
2021/04/25 06:33:06;;;;;;;7.27;3.37;;;;;;;13.62;100.00;101855.41;4935405;29;20408;-78
2021/04/25 06:35:32;;;;;;;7.10;3.10;;;;;;;13.73;100.00;101854.72;4934919;29;20166;-77
2021/04/25 06:37:57;;;;;;;7.47;3.50;;;;;;;13.84;100.00;101854.91;4934823;29;20248;-77
2021/04/25 06:40:23;;;;;;;5.27;3.13;;;;;;;13.91;100.00;101856.22;4935265;29;20176;-78
2021/04/25 06:42:48;;;;;;;11.07;3.90;;;;;;;13.99;100.00;101855.75;4933693;29;20696;-79
2021/04/25 06:45:19;;;;;;;6.07;3.43;;;;;;;14.13;100.00;101859.22;4934948;29;20200;-75
2021/04/25 06:47:49;;;;;;;7.27;3.30;;;;;;;13.99;100.00;101853.97;4934982;29;20248;-80
2021/04/25 06:50:16;;;;;;;5.90;3.00;;;;;;;13.94;100.00;101865.75;4935005;29;20413;-78
2021/04/25 06:52:43;;;;;;;7.07;3.53;;;;;;;14.04;100.00;101870.34;4934660;29;20456;-79
2021/04/25 06:55:17;;;;;;;7.23;3.67;;;;;;;14.10;100.00;101867.31;4952413;29;20420;-76
2021/04/25 06:57:44;;;;;;;5.40;3.43;;;;;;;14.29;100.00;101876.75;4953828;29;20411;-77
2021/04/25 07:00:11;;;;;;;4.90;3.37;;;;;;;14.36;100.00;101870.13;4954390;28;20893;-76
2021/04/25 07:02:37;;;;;;;10.77;3.80;;;;;;;14.50;100.00;101866.59;4953683;29;21056;-78
2021/04/25 07:05:04;;;;;;;7.20;3.70;;;;;;;14.74;100.00;101869.44;4951376;28;20484;-71
2021/04/25 07:07:30;;;;;;;7.77;3.87;;;;;;;14.86;100.00;101861.50;4933598;29;20169;-78
2021/04/25 07:09:56;;;;;;;8.60;3.73;;;;;;;14.98;100.00;101860.72;4933263;29;20516;-78
2021/04/25 07:12:22;;;;;;;6.30;3.50;;;;;;;15.05;100.00;101877.03;4933619;29;20415;-77
2021/04/25 07:14:47;;;;;;;9.30;3.53;;;;;;;15.16;100.00;101865.69;4933155;29;20251;-75
2021/04/25 07:17:13;;;;;;;14.07;4.40;;;;;;;15.03;100.00;101872.75;4933945;29;20188;-73
2021/04/25 07:19:38;;;;;;;9.87;4.87;;;;;;;14.98;100.00;101873.94;4933730;29;20218;-71
2021/04/25 07:22:04;;;;;;;5.23;3.20;;;;;;;15.09;100.00;101873.22;4934000;29;20161;-72
2021/04/25 07:24:29;;;;;;;6.80;3.70;;;;;;;15.46;100.00;101868.03;4915712;29;20193;-73
2021/04/25 07:26:55;;;;;;;5.67;3.70;;;;;;;15.52;100.00;101870.28;4932932;29;20597;-77
2021/04/25 07:29:21;;;;;;;6.37;3.50;;;;;;;15.61;100.00;101869.66;4915934;29;20177;-76
2021/04/25 07:31:47;;;;;;;6.87;3.60;;;;;;;15.58;100.00;101864.56;4946977;29;20164;-76
2021/04/25 07:34:12;;;;;;;11.43;4.00;;;;;;;15.49;100.00;101871.34;4952739;28;20466;-73
2021/04/25 07:36:38;;;;;;;8.83;3.10;;;;;;;15.64;100.00;101872.13;4950889;29;20164;-73
2021/04/25 07:39:05;;;;;;;7.50;3.33;;;;;;;15.59;100.00;101860.09;4937768;29;20224;-74
2021/04/25 07:41:31;;;;;;;4.30;3.20;;;;;;;15.97;100.00;101857.44;4933257;29;20185;-77
2021/04/25 07:43:57;;;;;;;7.47;3.50;;;;;;;16.23;98.72;101856.38;4933198;29;20535;-76
2021/04/25 07:46:23;;;;;;;8.23;3.70;;;;;;;16.59;95.71;101862.59;4932985;29;20456;-76
2021/04/25 07:48:48;;;;;;;13.43;4.70;;;;;;;16.61;95.77;101852.72;4932646;29;20176;-73
2021/04/25 07:51:14;;;;;;;10.93;3.67;;;;;;;16.81;93.67;101846.81;4932530;29;20449;-77
2021/04/25 07:53:39;;;;;;;6.57;3.47;;;;;;;17.08;91.59;101843.88;4932826;29;20176;-74
2021/04/25 07:56:06;;;;;;;4.77;3.50;;;;;;;16.91;84.65;101842.50;4932989;29;20205;-73
2021/04/25 07:58:31;;;;;;;5.40;3.43;;;;;;;17.03;85.77;101837.22;4932939;29;20192;-74
2021/04/25 08:00:57;;;;;;;5.70;3.00;;;;;;;17.01;87.28;101836.50;4932522;29;20976;-74
2021/04/25 08:03:22;;;;;;;5.50;3.30;;;;;;;17.02;87.03;101832.88;4933011;29;20204;-75
2021/04/25 08:05:48;;;;;;;9.90;3.40;;;;;;;17.25;85.73;101831.09;4932910;29;20717;-74
2021/04/25 08:08:13;;;;;;;6.20;3.10;;;;;;;17.39;84.34;101825.56;4933152;29;20165;-74
2021/04/25 08:10:39;;;;;;;10.57;3.77;;;;;;;17.37;87.11;101830.97;4931185;29;20563;-73
2021/04/25 08:13:04;;;;;;;5.03;3.23;;;;;;;17.74;86.02;101831.63;4949584;29;20170;-72
2021/04/25 08:15:30;;;;;;;5.10;3.20;;;;;;;17.59;85.60;101826.66;4941420;29;20183;-76
2021/04/25 08:17:56;;;;;;;13.00;3.73;;;;;;;17.34;85.16;101827.72;4950865;28;20161;-77
2021/04/25 08:20:22;;;;;;;6.50;3.47;;;;;;;17.61;85.92;101824.72;4940235;29;20172;-73
2021/04/25 08:22:48;;;;;;;6.40;3.40;;;;;;;17.86;79.93;101831.63;4938505;29;20322;-74
2021/04/25 08:25:14;;;;;;;4.43;3.00;;;;;;;17.91;75.94;101826.75;4936780;29;20440;-73
2021/04/25 08:27:39;;;;;;;7.00;3.47;;;;;;;17.96;70.80;101822.78;4940154;29;20165;-75
2021/04/25 08:30:07;;;;;;;8.00;3.40;;;;;;;17.79;81.35;101827.75;4937851;29;20189;-74
2021/04/25 08:32:32;;;;;;;5.13;3.13;;;;;;;17.87;79.26;101820.03;4939731;29;20650;-77
2021/04/25 08:34:58;;;;;;;9.57;3.97;;;;;;;17.66;72.02;101819.88;4935691;29;20409;-77
2021/04/25 08:37:24;;;;;;;6.60;3.13;;;;;;;17.43;67.49;101817.22;4935537;29;20229;-75
2021/04/25 08:39:49;;;;;;;5.93;3.20;;;;;;;17.30;78.18;101816.47;4934375;29;20549;-75
2021/04/25 08:42:15;;;;;;;11.23;4.20;;;;;;;17.19;83.79;101811.16;4942236;29;20231;-77
2021/04/25 08:44:43;;;;;;;6.27;3.90;;;;;;;17.20;89.64;101810.19;4936297;28;20211;-75
2021/04/25 08:47:08;;;;;;;7.60;4.00;;;;;;;16.88;93.33;101805.56;4949401;29;20168;-77
2021/04/25 08:49:35;;;;;;;6.00;3.67;;;;;;;16.92;94.60;101817.63;4939724;29;20419;-76
2021/04/25 08:52:01;;;;;;;7.23;3.73;;;;;;;16.76;93.55;101816.25;4935881;29;20666;-75
2021/04/25 08:54:27;;;;;;;10.60;4.70;;;;;;;16.69;97.36;101807.91;4935688;29;20416;-77
2021/04/25 08:56:55;;;;;;;9.90;3.57;;;;;;;16.90;98.95;101803.63;4935384;29;20494;-74
2021/04/25 08:59:20;;;;;;;9.03;3.47;;;;;;;16.91;98.76;101802.66;4935836;29;20153;-78
2021/04/25 09:01:46;;;;;;;5.87;3.10;;;;;;;16.98;84.12;101800.38;4934400;29;20492;-71
2021/04/25 09:04:12;;;;;;;6.17;4.00;;;;;;;16.99;78.01;101795.91;4935608;29;20201;-74
2021/04/25 09:06:57;;;;;;;14.80;3.60;;;;;;;16.85;82.76;101800.50;4950443;29;20187;-77
2021/04/25 09:09:23;;;;;;;12.90;3.90;;;;;;;16.91;91.68;101792.03;4937127;29;20268;-76
2021/04/25 09:11:49;;;;;;;8.30;3.53;;;;;;;17.09;89.08;101792.47;4935300;29;20564;-77
2021/04/25 09:14:17;;;;;;;7.27;3.43;;;;;;;17.22;83.50;101791.47;4935256;29;20173;-76
2021/04/25 09:17:04;;;;;;;8.53;3.43;;;;;;;17.38;84.73;101790.19;4933015;29;20404;-75
2021/04/25 09:19:58;;;;;;;6.37;3.60;;;;;;;17.27;89.75;101790.16;4949917;29;20818;-75
2021/04/25 09:22:42;;;;;;;6.13;3.20;;;;;;;17.21;79.04;101774.69;4942220;29;20433;-77
2021/04/25 09:25:17;;;;;;;5.17;4.00;;;;;;;17.17;81.43;101781.22;4940669;29;20874;-76
2021/04/25 09:27:45;;;;;;;9.77;3.63;;;;;;;17.31;84.98;101782.81;4934926;29;20521;-77
2021/04/25 09:30:12;;;;;;;7.93;3.70;;;;;;;17.18;91.23;101788.22;4917422;29;20517;-77
2021/04/25 09:32:38;;;;;;;6.90;3.67;;;;;;;17.20;87.62;101779.16;4937395;29;20863;-75
2021/04/25 09:35:08;;;;;;;9.33;4.60;;;;;;;17.26;83.98;101780.50;4947366;29;20428;-74
2021/04/25 09:37:35;;;;;;;6.47;3.30;;;;;;;17.15;81.81;101789.34;4934705;29;20487;-76
2021/04/25 09:40:08;;;;;;;8.50;3.40;;;;;;;17.24;82.51;101777.13;4942090;29;20981;-74
2021/04/25 09:42:59;;;;;;;5.73;3.50;;;;;;;17.26;100.00;101783.16;4942261;29;20447;-75
2021/04/25 09:45:32;;;;;;;7.83;4.10;;;;;;;17.22;100.00;101794.97;4941069;29;20409;-76
2021/04/25 09:47:59;;;;;;;6.60;3.97;;;;;;;17.04;100.00;101799.06;4933942;29;20421;-73
2021/04/25 09:50:25;;;;;;;11.20;4.03;;;;;;;16.79;100.00;101795.66;4934326;29;20432;-77
2021/04/25 09:52:51;;;;;;;6.50;3.77;;;;;;;16.61;100.00;101802.31;4934828;29;20540;-72
2021/04/25 09:55:28;;;;;;;5.40;3.70;;;;;;;16.45;100.00;101796.44;4934788;29;20552;-72
2021/04/25 09:57:56;;;;;;;32.30;19.67;;;;;;;16.50;100.00;101800.47;4934772;29;20413;-75
2021/04/25 10:00:36;;;;;;;6.83;4.63;;;;;;;16.64;100.00;101810.88;4931559;29;20832;-74
2021/04/25 10:03:09;;;;;;;15.27;6.80;;;;;;;16.69;100.00;101804.38;4933719;29;20455;-75
2021/04/25 10:05:36;;;;;;;7.93;4.00;;;;;;;16.91;100.00;101797.34;4939046;29;20483;-72
2021/04/25 10:08:03;;;;;;;9.77;4.47;;;;;;;17.03;100.00;101792.09;4936669;29;20408;-72
2021/04/25 10:10:29;;;;;;;7.90;4.20;;;;;;;16.91;100.00;101802.66;4933900;29;20849;-78
2021/04/25 10:12:55;;;;;;;10.53;3.93;;;;;;;16.84;100.00;101790.81;4935751;29;20426;-71
2021/04/25 10:15:21;;;;;;;7.30;4.20;;;;;;;16.75;100.00;101793.34;4954106;29;20924;-73
2021/04/25 10:17:50;;;;;;;8.50;3.93;;;;;;;16.70;100.00;101787.50;4953698;29;20404;-74
2021/04/25 10:20:19;;;;;;;7.73;3.90;;;;;;;17.04;100.00;101791.97;4953461;29;20416;-72
2021/04/25 10:22:49;;;;;;;6.83;4.37;;;;;;;17.67;100.00;101782.53;4950403;29;20468;-76
2021/04/25 10:25:39;;;;;;;5.97;4.50;;;;;;;17.97;100.00;101784.56;4932676;29;20524;-72
2021/04/25 10:28:12;;;;;;;7.97;4.30;;;;;;;18.17;100.00;101777.63;4933838;29;20425;-75
2021/04/25 10:30:39;;;;;;;6.70;4.63;;;;;;;18.28;100.00;101774.91;4934616;29;20559;-72
2021/04/25 10:33:05;;;;;;;10.80;4.50;;;;;;;18.45;100.00;101765.56;4933953;29;20784;-73
2021/04/25 10:35:34;;;;;;;15.93;4.43;;;;;;;18.25;100.00;101767.19;4933846;29;20432;-74
2021/04/25 10:38:02;;;;;;;11.80;5.90;;;;;;;18.21;100.00;101770.22;4932634;29;20503;-74
2021/04/25 10:40:33;;;;;;;8.33;4.27;;;;;;;18.34;100.00;101765.59;4934425;29;20497;-73
2021/04/25 10:43:12;;;;;;;12.50;5.27;;;;;;;18.44;100.00;101761.22;4934160;29;20538;-74
2021/04/25 10:46:01;;;;;;;8.87;5.10;;;;;;;18.19;100.00;101769.53;4935246;29;20512;-71
2021/04/25 10:48:29;;;;;;;19.60;4.53;;;;;;;17.81;100.00;101773.50;4947541;29;20423;-75
2021/04/25 10:51:07;;;;;;;9.87;4.10;;;;;;;18.25;100.00;101772.53;4953424;29;20450;-75
2021/04/25 10:53:36;;;;;;;12.83;4.37;;;;;;;18.57;100.00;101766.31;4940084;29;20420;-72
2021/04/25 10:56:14;;;;;;;9.60;5.10;;;;;;;18.62;100.00;101769.47;4933857;29;20476;-72
2021/04/25 10:58:45;;;;;;;12.13;4.80;;;;;;;18.81;100.00;101763.44;4932758;29;20762;-71
2021/04/25 11:01:38;;;;;;;7.73;4.30;;;;;;;19.62;100.00;101767.06;4925495;29;21027;-75
2021/04/25 11:04:04;;;;;;;7.20;4.47;;;;;;;19.49;100.00;101761.94;4923657;29;20476;-75
2021/04/25 11:06:30;;;;;;;6.87;4.60;;;;;;;19.48;100.00;101752.25;4931776;29;20416;-73
2021/04/25 11:08:56;;;;;;;8.50;4.90;;;;;;;19.34;100.00;101753.47;4932941;29;20153;-76
2021/04/25 11:11:36;;;;;;;8.77;4.13;;;;;;;19.56;100.00;101749.75;4914748;29;20162;-72
2021/04/25 11:14:03;;;;;;;6.80;5.00;;;;;;;20.36;100.00;101747.94;4932275;29;20456;-76
2021/04/25 11:16:31;;;;;;;9.53;4.20;;;;;;;21.25;100.00;101729.75;4932357;29;20484;-78